Time;durP1;ratioP1;P1;durP2;ratioP2;P2;SDS_P1;SDS_P2;PMS_P1;PMS_P2;Temp;Humidity;BMP_temperature;BMP_pressure;BME280_temperature;BME280_humidity;BME280_pressure;Samples;Min_cycle;Max_cycle;Signal;HPM_P1;HPM_P2
2022/08/23 00:02:08;;;;;;;0.00;0.00;;;17.40;99.90;;;;;;5075982;28;20056;-80
2022/08/23 00:04:38;;;;;;;0.00;0.00;;;17.40;99.90;;;;;;5075752;28;20130;-80
2022/08/23 00:07:05;;;;;;;0.00;0.00;;;17.30;99.90;;;;;;5076088;28;20090;-80
2022/08/23 00:09:31;;;;;;;0.00;0.00;;;17.30;99.90;;;;;;5075712;28;20044;-80
2022/08/23 00:12:11;;;;;;;0.15;0.00;;;17.40;99.90;;;;;;5076605;28;20044;-80
2022/08/23 00:14:40;;;;;;;0.90;0.30;;;17.30;99.90;;;;;;5075584;28;20441;-80
2022/08/23 00:17:08;;;;;;;0.00;0.00;;;17.30;99.90;;;;;;5075649;28;20117;-80
2022/08/23 00:19:35;;;;;;;0.00;0.00;;;17.30;99.90;;;;;;5090766;28;20480;-80
2022/08/23 00:22:01;;;;;;;0.00;0.00;;;17.30;99.90;;;;;;5092484;28;20051;-80
2022/08/23 00:24:26;;;;;;;0.00;0.00;;;17.20;99.90;;;;;;5092869;28;20050;-80
2022/08/23 00:26:52;;;;;;;0.00;0.00;;;17.20;99.90;;;;;;5092774;28;20044;-80
2022/08/23 00:29:18;;;;;;;0.00;0.00;;;17.20;99.90;;;;;;5075874;28;20422;-80
2022/08/23 00:31:44;;;;;;;0.00;0.00;;;17.10;99.90;;;;;;5075614;28;20056;-80
2022/08/23 00:34:11;;;;;;;0.00;0.00;;;17.10;99.90;;;;;;5077756;28;20434;-80
2022/08/23 00:36:37;;;;;;;0.00;0.00;;;17.10;99.90;;;;;;5096160;28;20089;-80
2022/08/23 00:39:04;;;;;;;0.10;0.10;;;17.10;99.90;;;;;;5096213;28;20039;-80
2022/08/23 00:41:30;;;;;;;0.00;0.00;;;17.10;99.90;;;;;;5096255;28;20426;-79
2022/08/23 00:49:32;;;;;;;0.08;0.08;;;17.00;99.90;;;;;;5096606;28;20514;-80
2022/08/23 00:52:09;;;;;;;0.00;0.00;;;16.90;99.90;;;;;;5079566;28;20054;-79
2022/08/23 00:54:38;;;;;;;0.10;0.00;;;16.90;99.90;;;;;;5079285;28;20051;-79
2022/08/23 00:57:07;;;;;;;0.00;0.00;;;16.90;99.90;;;;;;5078568;28;20121;-79
2022/08/23 00:59:33;;;;;;;0.00;0.00;;;16.90;99.90;;;;;;5095817;28;20091;-79
2022/08/23 01:02:00;;;;;;;0.00;0.00;;;16.80;99.90;;;;;;5095942;28;20087;-79
2022/08/23 01:04:31;;;;;;;0.00;0.00;;;16.80;99.90;;;;;;5095758;28;20073;-79
2022/08/23 01:07:03;;;;;;;0.00;0.00;;;16.80;99.90;;;;;;5095847;28;20135;-79
2022/08/23 01:09:29;;;;;;;0.00;0.00;;;16.80;99.90;;;;;;5095797;28;20140;-79
2022/08/23 01:11:55;;;;;;;0.00;0.00;;;16.70;99.90;;;;;;5078356;28;20080;-79
2022/08/23 01:14:24;;;;;;;0.00;0.00;;;16.80;99.90;;;;;;5095621;28;20086;-79
2022/08/23 01:16:56;;;;;;;0.00;0.00;;;16.80;99.90;;;;;;5078403;28;20552;-79
2022/08/23 01:19:34;;;;;;;0.00;0.00;;;16.80;99.90;;;;;;5078787;28;20137;-79
2022/08/23 01:22:25;;;;;;;0.00;0.00;;;16.70;99.90;;;;;;5078717;28;20052;-79
2022/08/23 01:24:52;;;;;;;0.00;0.00;;;16.70;99.90;;;;;;5037279;28;20053;-79
2022/08/23 01:27:18;;;;;;;0.00;0.00;;;16.60;99.90;;;;;;5021037;28;20501;-79
2022/08/23 01:29:44;;;;;;;0.00;0.00;;;16.70;99.90;;;;;;5037607;28;20072;-79
2022/08/23 01:32:11;;;;;;;0.00;0.00;;;16.60;99.90;;;;;;5037339;28;20107;-79
2022/08/23 01:34:37;;;;;;;0.00;0.00;;;16.60;99.90;;;;;;5020872;28;20138;-79
2022/08/23 01:37:05;;;;;;;0.00;0.00;;;16.60;99.90;;;;;;5020620;28;20148;-79
2022/08/23 01:39:31;;;;;;;0.00;0.00;;;16.60;99.90;;;;;;5037205;28;20104;-79
2022/08/23 01:41:57;;;;;;;0.00;0.00;;;16.60;99.90;;;;;;5036998;28;20049;-79
2022/08/23 01:44:23;;;;;;;0.10;0.00;;;16.60;99.90;;;;;;5036748;28;20041;-79
2022/08/23 01:46:49;;;;;;;0.17;0.17;;;16.60;99.90;;;;;;5020105;28;20056;-79
2022/08/23 01:49:15;;;;;;;0.00;0.00;;;16.60;99.90;;;;;;5036882;28;20059;-79
2022/08/23 01:51:41;;;;;;;0.32;0.08;;;16.50;99.90;;;;;;5020880;28;20404;-80
2022/08/23 01:54:07;;;;;;;0.00;0.00;;;16.50;99.90;;;;;;5020903;28;20060;-79
2022/08/23 01:56:33;;;;;;;0.00;0.00;;;16.50;99.90;;;;;;5036370;28;20130;-79
2022/08/23 01:58:59;;;;;;;0.00;0.00;;;16.50;99.90;;;;;;5036742;28;20452;-79
2022/08/23 02:01:25;;;;;;;0.00;0.00;;;16.40;99.90;;;;;;5051649;28;20048;-80
2022/08/23 02:03:51;;;;;;;0.00;0.00;;;16.40;99.90;;;;;;5077569;28;20044;-79
2022/08/23 02:06:17;;;;;;;0.00;0.00;;;16.40;99.90;;;;;;5094553;28;20427;-79
2022/08/23 02:09:01;;;;;;;1.75;0.52;;;16.40;99.90;;;;;;5094679;28;20040;-79
2022/08/23 02:11:37;;;;;;;0.00;0.00;;;16.40;99.90;;;;;;5094811;28;20048;-79
2022/08/23 02:14:07;;;;;;;0.00;0.00;;;16.40;99.90;;;;;;5078095;28;20082;-79
2022/08/23 02:16:40;;;;;;;0.00;0.00;;;16.40;99.90;;;;;;5094046;28;20134;-79
2022/08/23 02:19:09;;;;;;;0.00;0.00;;;16.30;99.90;;;;;;5077613;28;20453;-79
2022/08/23 02:21:37;;;;;;;0.00;0.00;;;16.20;99.90;;;;;;5077739;28;20044;-79
2022/08/23 02:24:09;;;;;;;0.00;0.00;;;16.20;99.90;;;;;;5094001;28;20036;-79
2022/08/23 02:26:36;;;;;;;0.00;0.00;;;16.20;99.90;;;;;;5094057;28;20044;-79
2022/08/23 02:29:03;;;;;;;0.00;0.00;;;16.20;99.90;;;;;;5093980;28;20097;-79
2022/08/23 02:31:28;;;;;;;0.10;0.05;;;16.20;99.90;;;;;;5093945;28;20059;-78
2022/08/23 02:33:54;;;;;;;0.00;0.00;;;16.20;99.90;;;;;;5094059;28;20035;-79
2022/08/23 02:36:20;;;;;;;0.00;0.00;;;16.20;99.90;;;;;;5076951;28;20146;-79
2022/08/23 02:38:46;;;;;;;0.00;0.00;;;16.20;99.90;;;;;;5093736;28;20044;-80
2022/08/23 02:41:11;;;;;;;0.00;0.00;;;16.20;99.90;;;;;;5093795;28;20036;-79
2022/08/23 02:43:37;;;;;;;0.00;0.00;;;16.20;99.90;;;;;;5076686;28;20043;-79
2022/08/23 02:46:06;;;;;;;0.30;0.00;;;16.20;99.90;;;;;;5093700;28;20073;-79
2022/08/23 02:48:33;;;;;;;0.00;0.00;;;16.20;99.90;;;;;;5093545;28;20051;-79
2022/08/23 02:51:00;;;;;;;0.00;0.00;;;16.20;99.90;;;;;;5093731;28;20048;-79
2022/08/23 02:53:26;;;;;;;0.00;0.00;;;16.10;99.90;;;;;;5093573;28;20391;-80
2022/08/23 02:55:51;;;;;;;0.00;0.00;;;16.10;99.90;;;;;;5076108;28;20162;-79
2022/08/23 02:58:17;;;;;;;8.30;0.70;;;16.00;99.90;;;;;;5076651;28;20056;-80
2022/08/23 03:00:50;;;;;;;0.00;0.00;;;16.00;99.90;;;;;;5093709;28;20040;-80
2022/08/23 03:03:16;;;;;;;0.00;0.00;;;16.00;99.90;;;;;;5093488;28;20074;-80
2022/08/23 03:05:42;;;;;;;0.00;0.00;;;16.00;99.90;;;;;;5076684;28;20083;-80
2022/08/23 03:08:09;;;;;;;0.00;0.00;;;16.10;99.90;;;;;;5076581;28;20488;-80
2022/08/23 03:10:37;;;;;;;0.00;0.00;;;16.00;99.90;;;;;;5076499;28;20094;-80
2022/08/23 03:13:02;;;;;;;0.00;0.00;;;16.00;99.90;;;;;;5093700;28;20044;-80
2022/08/23 03:15:28;;;;;;;0.00;0.00;;;15.90;99.90;;;;;;5093493;28;20050;-80
2022/08/23 03:17:54;;;;;;;0.00;0.00;;;15.90;99.90;;;;;;5093327;28;20361;-79
2022/08/23 03:20:20;;;;;;;0.00;0.00;;;15.90;99.90;;;;;;5076545;28;20402;-79
2022/08/23 03:22:46;;;;;;;0.10;0.10;;;15.90;99.90;;;;;;5093282;28;20445;-79
2022/08/23 03:25:12;;;;;;;0.88;0.05;;;15.80;99.90;;;;;;5075951;28;20044;-80
2022/08/23 03:27:37;;;;;;;0.00;0.00;;;15.80;99.90;;;;;;5076608;28;20130;-80
2022/08/23 03:30:05;;;;;;;0.00;0.00;;;15.80;99.90;;;;;;5093535;28;20383;-80
2022/08/23 03:32:31;;;;;;;0.00;0.00;;;15.80;99.90;;;;;;5075875;28;20122;-79
2022/08/23 03:34:56;;;;;;;0.03;0.00;;;15.80;99.90;;;;;;5093328;28;20060;-79
2022/08/23 03:37:23;;;;;;;0.75;0.30;;;15.80;99.90;;;;;;5076141;28;20043;-79
2022/08/23 03:39:49;;;;;;;0.03;0.00;;;15.80;99.90;;;;;;5076160;28;20044;-79
2022/08/23 03:42:15;;;;;;;0.00;0.00;;;15.70;99.90;;;;;;5093302;28;20134;-79
2022/08/23 03:44:40;;;;;;;0.00;0.00;;;15.70;99.90;;;;;;5092599;28;20047;-79
2022/08/23 03:47:07;;;;;;;0.00;0.00;;;15.50;99.90;;;;;;5075829;28;20056;-79
2022/08/23 03:49:33;;;;;;;0.00;0.00;;;15.50;99.90;;;;;;5075832;28;20480;-79
2022/08/23 03:51:59;;;;;;;0.00;0.00;;;15.50;99.90;;;;;;5075867;28;20063;-79
2022/08/23 03:54:26;;;;;;;0.00;0.00;;;15.50;99.90;;;;;;5092755;28;20052;-79
2022/08/23 03:56:55;;;;;;;0.00;0.00;;;15.50;99.90;;;;;;5092746;28;20056;-79
2022/08/23 03:59:21;;;;;;;0.00;0.00;;;15.50;99.90;;;;;;5076510;28;20143;-79
2022/08/23 04:01:47;;;;;;;0.22;0.08;;;15.60;99.90;;;;;;5092898;28;20463;-79
2022/08/23 04:04:13;;;;;;;0.00;0.00;;;15.60;99.90;;;;;;5092726;28;20054;-79
2022/08/23 04:06:39;;;;;;;0.03;0.00;;;15.50;99.90;;;;;;5076142;28;20138;-78
2022/08/23 04:09:04;;;;;;;0.10;0.10;;;15.50;99.90;;;;;;5077619;28;20204;-78
2022/08/23 04:11:31;;;;;;;0.00;0.00;;;15.50;99.90;;;;;;5096985;28;20097;-78
2022/08/23 04:13:57;;;;;;;0.28;0.15;;;15.60;99.90;;;;;;5096590;28;20063;-79
2022/08/23 04:16:23;;;;;;;0.00;0.00;;;15.60;99.90;;;;;;5079881;28;20521;-78
2022/08/23 04:18:48;;;;;;;0.20;0.00;;;15.60;99.90;;;;;;5096875;28;20044;-78
2022/08/23 04:21:18;;;;;;;0.00;0.00;;;15.60;99.90;;;;;;5096632;28;20391;-78
2022/08/23 04:23:44;;;;;;;0.00;0.00;;;15.60;99.90;;;;;;5096521;28;20083;-79
2022/08/23 04:26:10;;;;;;;0.00;0.00;;;15.60;99.90;;;;;;5079405;28;20098;-78
2022/08/23 04:28:36;;;;;;;0.00;0.00;;;15.50;99.90;;;;;;5079416;28;20046;-78
2022/08/23 04:31:03;;;;;;;0.03;0.00;;;15.50;99.90;;;;;;5096346;28;20086;-78
2022/08/23 04:33:33;;;;;;;0.00;0.00;;;15.50;99.90;;;;;;5079605;28;20044;-78
2022/08/23 04:36:00;;;;;;;1.02;0.00;;;15.50;99.90;;;;;;5096392;28;20123;-78
2022/08/23 04:38:26;;;;;;;0.00;0.00;;;15.50;99.90;;;;;;5079792;28;20040;-78
2022/08/23 04:43:38;;;;;;;0.00;0.00;;;15.50;99.90;;;;;;5095870;28;20044;-78
2022/08/23 04:46:04;;;;;;;1.45;0.38;;;15.50;99.90;;;;;;5096001;28;20040;-78
2022/08/23 04:48:30;;;;;;;0.13;0.13;;;15.50;99.90;;;;;;5079214;28;20043;-78
2022/08/23 04:50:56;;;;;;;0.00;0.00;;;15.40;99.90;;;;;;5096082;28;20380;-78
2022/08/23 04:53:22;;;;;;;0.00;0.00;;;15.40;99.90;;;;;;5078730;28;20101;-78
2022/08/23 04:55:51;;;;;;;0.00;0.00;;;15.50;99.90;;;;;;5078257;28;20074;-78
2022/08/23 04:58:17;;;;;;;0.00;0.00;;;15.50;99.90;;;;;;5095884;28;20135;-78
2022/08/23 05:00:43;;;;;;;0.05;0.03;;;15.60;99.90;;;;;;5095930;28;20048;-78
2022/08/23 05:03:09;;;;;;;0.00;0.00;;;15.50;99.90;;;;;;5095770;28;20373;-79
2022/08/23 05:05:34;;;;;;;0.35;0.08;;;15.50;99.90;;;;;;5095699;28;20559;-78
2022/08/23 05:08:00;;;;;;;0.00;0.00;;;15.60;99.90;;;;;;5095714;28;20392;-78
2022/08/23 05:10:26;;;;;;;0.08;0.00;;;15.60;99.90;;;;;;5095805;28;20134;-79
2022/08/23 05:12:51;;;;;;;0.03;0.03;;;15.60;99.90;;;;;;5095968;28;20040;-79
2022/08/23 05:15:17;;;;;;;0.00;0.00;;;15.60;99.90;;;;;;5078943;28;20127;-79
2022/08/23 05:17:43;;;;;;;0.00;0.00;;;15.60;99.90;;;;;;5078380;28;20468;-79
2022/08/23 05:20:09;;;;;;;0.00;0.00;;;15.60;99.90;;;;;;5095424;28;20483;-78
2022/08/23 05:22:38;;;;;;;0.00;0.00;;;15.70;99.90;;;;;;5095443;28;20126;-78
2022/08/23 05:25:04;;;;;;;0.30;0.13;;;15.70;99.90;;;;;;5078292;28;20392;-78
2022/08/23 05:27:30;;;;;;;0.60;0.03;;;15.70;99.90;;;;;;5078088;28;20134;-78
2022/08/23 05:29:55;;;;;;;0.00;0.00;;;15.70;99.90;;;;;;5095380;28;20047;-79
2022/08/23 05:32:21;;;;;;;0.00;0.00;;;15.70;99.90;;;;;;5095057;28;20044;-79
2022/08/23 05:34:47;;;;;;;0.00;0.00;;;15.70;99.90;;;;;;5078297;28;20052;-79
2022/08/23 05:37:14;;;;;;;0.00;0.00;;;15.80;99.90;;;;;;5095737;28;20044;-79
2022/08/23 05:39:40;;;;;;;0.00;0.00;;;15.90;99.90;;;;;;5078171;28;20064;-79
2022/08/23 05:42:08;;;;;;;0.00;0.00;;;15.90;99.90;;;;;;5077755;28;20048;-79
2022/08/23 05:44:34;;;;;;;0.00;0.00;;;16.00;99.90;;;;;;5094856;28;20044;-79
2022/08/23 05:47:00;;;;;;;0.08;0.05;;;16.00;99.90;;;;;;5077620;28;20089;-79
2022/08/23 05:49:25;;;;;;;0.00;0.00;;;16.10;99.90;;;;;;5095413;28;20086;-79
2022/08/23 05:51:51;;;;;;;0.10;0.10;;;16.20;99.90;;;;;;5078091;28;20048;-79
2022/08/23 05:54:17;;;;;;;0.00;0.00;;;16.20;99.90;;;;;;5077619;28;20042;-79
2022/08/23 05:56:43;;;;;;;0.00;0.00;;;16.30;99.90;;;;;;5077522;28;20052;-79
2022/08/23 05:59:14;;;;;;;0.00;0.00;;;16.40;99.90;;;;;;5077839;28;20040;-79
2022/08/23 06:01:40;;;;;;;0.00;0.00;;;16.50;99.90;;;;;;5094753;28;20087;-79
2022/08/23 06:04:10;;;;;;;0.00;0.00;;;16.50;99.90;;;;;;5077673;28;20075;-79
2022/08/23 06:06:37;;;;;;;0.10;0.00;;;16.60;99.90;;;;;;5078145;28;20052;-79
2022/08/23 06:09:05;;;;;;;0.00;0.00;;;16.70;99.90;;;;;;5077665;28;20044;-79
2022/08/23 06:11:31;;;;;;;0.00;0.00;;;16.70;99.90;;;;;;5094411;28;20055;-79
2022/08/23 06:14:00;;;;;;;0.00;0.00;;;16.80;99.90;;;;;;5094354;28;20048;-79
2022/08/23 06:16:32;;;;;;;0.00;0.00;;;17.00;99.90;;;;;;5094513;28;20129;-79
2022/08/23 06:19:01;;;;;;;0.00;0.00;;;17.10;99.90;;;;;;5094399;28;20062;-79
2022/08/23 06:21:27;;;;;;;0.00;0.00;;;17.20;99.90;;;;;;5077403;28;20059;-79
2022/08/23 06:23:53;;;;;;;0.00;0.00;;;17.30;99.90;;;;;;5077172;28;20062;-79
2022/08/23 06:26:22;;;;;;;0.00;0.00;;;17.40;99.90;;;;;;5077145;28;20464;-79
2022/08/23 06:28:50;;;;;;;0.13;0.13;;;17.50;99.90;;;;;;5094013;28;20134;-79
2022/08/23 06:31:43;;;;;;;0.00;0.00;;;17.60;99.90;;;;;;5076240;28;20491;-80
2022/08/23 06:34:03;;;;;;;0.00;0.00;;;17.70;99.90;;;;;;5093387;28;20055;-79
2022/08/23 06:36:28;;;;;;;0.00;0.00;;;17.80;99.90;;;;;;5093955;28;20083;-79
2022/08/23 06:38:54;;;;;;;0.00;0.00;;;17.90;99.90;;;;;;5076572;28;20460;-79
2022/08/23 06:41:20;;;;;;;0.00;0.00;;;18.10;99.90;;;;;;5094203;28;20054;-80
2022/08/23 06:43:46;;;;;;;0.00;0.00;;;18.20;99.90;;;;;;5076774;28;20050;-79
2022/08/23 06:46:18;;;;;;;0.00;0.00;;;18.40;99.90;;;;;;5094325;28;20048;-79
2022/08/23 06:48:45;;;;;;;0.00;0.00;;;18.60;99.90;;;;;;5076872;28;20048;-79
2022/08/23 06:51:13;;;;;;;0.00;0.00;;;18.80;99.90;;;;;;5076663;28;20051;-78
2022/08/23 06:53:39;;;;;;;0.10;0.00;;;19.00;99.90;;;;;;5075974;28;20063;-79
2022/08/23 06:56:05;;;;;;;0.00;0.00;;;19.30;99.90;;;;;;5076484;28;20056;-79
2022/08/23 06:58:31;;;;;;;0.10;0.00;;;19.90;99.90;;;;;;5094048;28;20048;-79
2022/08/23 07:01:20;;;;;;;0.08;0.00;;;20.90;99.90;;;;;;5093773;28;20040;-79
2022/08/23 07:03:46;;;;;;;0.00;0.00;;;22.10;99.90;;;;;;5093798;28;20044;-79
2022/08/23 07:06:12;;;;;;;0.00;0.00;;;22.80;99.90;;;;;;5076774;28;20088;-79
2022/08/23 07:08:37;;;;;;;0.10;0.00;;;23.00;99.90;;;;;;5093812;28;20078;-79
2022/08/23 07:11:04;;;;;;;0.00;0.00;;;22.90;99.90;;;;;;5076677;28;20143;-80
2022/08/23 07:13:29;;;;;;;0.10;0.00;;;22.80;99.90;;;;;;5093367;28;20517;-80
2022/08/23 07:15:59;;;;;;;0.00;0.00;;;23.20;99.90;;;;;;5093498;28;20090;-80
2022/08/23 07:18:26;;;;;;;0.25;0.25;;;23.40;99.90;;;;;;5076499;28;20135;-80
2022/08/23 07:20:59;;;;;;;0.05;0.05;;;23.20;99.90;;;;;;5076554;28;20091;-80
2022/08/23 07:23:26;;;;;;;0.00;0.00;;;23.00;99.90;;;;;;5093735;28;20388;-79
2022/08/23 07:25:52;;;;;;;0.00;0.00;;;22.80;99.90;;;;;;5093696;28;20036;-79
2022/08/23 07:28:18;;;;;;;0.10;0.10;;;22.80;99.90;;;;;;5093184;28;20090;-79
2022/08/23 07:30:44;;;;;;;0.03;0.00;;;22.80;99.90;;;;;;5093056;28;20044;-79
2022/08/23 07:33:10;;;;;;;0.15;0.10;;;23.10;99.90;;;;;;5075944;28;20058;-79
2022/08/23 07:35:36;;;;;;;0.20;0.20;;;23.50;99.90;;;;;;5093144;28;20040;-79
2022/08/23 07:38:01;;;;;;;0.00;0.00;;;24.40;99.90;;;;;;5092953;28;20075;-79
2022/08/23 07:40:27;;;;;;;0.28;0.28;;;25.00;99.90;;;;;;5076269;28;20040;-79
2022/08/23 07:42:55;;;;;;;1.52;0.22;;;25.30;99.90;;;;;;5076050;28;20056;-79
2022/08/23 07:45:21;;;;;;;0.05;0.05;;;25.40;99.90;;;;;;5092932;28;20495;-80
2022/08/23 07:47:47;;;;;;;0.00;0.00;;;25.40;99.90;;;;;;5091637;28;20127;-80
2022/08/23 07:50:13;;;;;;;0.63;0.43;;;25.30;99.90;;;;;;5074305;28;20044;-81
2022/08/23 07:52:39;;;;;;;0.35;0.20;;;25.10;99.90;;;;;;5102948;28;20044;-80
2022/08/23 07:55:06;;;;;;;0.00;0.00;;;24.80;99.90;;;;;;5111202;28;20059;-79
2022/08/23 07:57:31;;;;;;;0.17;0.17;;;24.70;99.90;;;;;;5111631;28;20116;-79
2022/08/23 08:00:00;;;;;;;0.00;0.00;;;24.50;99.90;;;;;;5113325;28;20499;-79
2022/08/23 08:02:26;;;;;;;0.00;0.00;;;24.40;99.90;;;;;;5096114;28;20407;-79
2022/08/23 08:04:51;;;;;;;0.00;0.00;;;24.20;99.90;;;;;;5113305;28;20042;-79
2022/08/23 08:07:17;;;;;;;0.00;0.00;;;24.20;99.90;;;;;;5096253;28;20132;-79
2022/08/23 08:09:43;;;;;;;0.00;0.00;;;24.10;99.90;;;;;;5113302;28;20390;-79
2022/08/23 08:12:09;;;;;;;0.03;0.00;;;24.00;99.90;;;;;;5113276;28;20042;-79
2022/08/23 08:14:35;;;;;;;0.10;0.05;;;23.90;99.90;;;;;;5096027;28;20039;-79
2022/08/23 08:17:01;;;;;;;0.00;0.00;;;23.80;99.90;;;;;;5095692;28;20071;-79
2022/08/23 08:19:27;;;;;;;0.00;0.00;;;23.80;99.90;;;;;;5113053;28;20048;-80
2022/08/23 08:21:52;;;;;;;0.00;0.00;;;23.90;99.90;;;;;;5096006;28;20059;-79
2022/08/23 08:24:18;;;;;;;0.00;0.00;;;23.90;99.90;;;;;;5112728;28;20483;-80
2022/08/23 08:26:45;;;;;;;0.00;0.00;;;23.90;99.90;;;;;;5113305;28;20050;-79
2022/08/23 08:29:12;;;;;;;0.10;0.00;;;24.00;99.90;;;;;;5113029;28;20047;-79
2022/08/23 08:31:40;;;;;;;0.00;0.00;;;24.10;99.90;;;;;;5096022;28;20052;-79
2022/08/23 08:34:07;;;;;;;0.00;0.00;;;24.20;99.90;;;;;;5113262;28;20047;-79
2022/08/23 08:36:43;;;;;;;0.00;0.00;;;24.30;99.90;;;;;;5112811;28;20055;-79
2022/08/23 08:39:12;;;;;;;0.00;0.00;;;24.40;99.90;;;;;;5096062;28;20043;-79
2022/08/23 08:41:44;;;;;;;0.00;0.00;;;24.60;99.90;;;;;;5095906;28;20107;-79
2022/08/23 08:44:31;;;;;;;0.00;0.00;;;24.70;99.90;;;;;;5113189;28;20048;-79
2022/08/23 08:46:58;;;;;;;0.00;0.00;;;24.90;99.90;;;;;;5095830;28;20047;-79
2022/08/23 08:49:31;;;;;;;0.00;0.00;;;25.10;99.90;;;;;;5112805;28;20446;-79
2022/08/23 08:52:15;;;;;;;0.00;0.00;;;25.10;99.90;;;;;;5095565;28;20062;-79
2022/08/23 08:54:44;;;;;;;0.00;0.00;;;25.00;99.90;;;;;;5113966;28;20053;-79
2022/08/23 08:57:14;;;;;;;0.00;0.00;;;24.90;98.30;;;;;;5114684;28;20058;-78
2022/08/23 09:00:14;;;;;;;0.00;0.00;;;24.80;99.20;;;;;;5099224;28;20503;-79
2022/08/23 09:02:40;;;;;;;0.00;0.00;;;24.70;99.10;;;;;;5116506;28;20052;-79
2022/08/23 09:05:16;;;;;;;0.00;0.00;;;24.60;99.20;;;;;;5099405;28;20108;-79
2022/08/23 09:08:09;;;;;;;0.00;0.00;;;24.60;99.30;;;;;;5098917;28;20044;-79
2022/08/23 09:10:48;;;;;;;0.00;0.00;;;24.70;99.90;;;;;;5115929;28;20043;-79
2022/08/23 09:13:26;;;;;;;0.00;0.00;;;24.70;99.30;;;;;;5098471;28;20496;-79
2022/08/23 09:16:21;;;;;;;0.00;0.00;;;24.80;99.60;;;;;;5098876;28;20039;-79
2022/08/23 09:18:47;;;;;;;0.32;0.00;;;25.10;99.90;;;;;;5098116;28;20049;-79
2022/08/23 09:21:14;;;;;;;0.00;0.00;;;25.30;99.10;;;;;;5115567;28;20357;-79
2022/08/23 09:23:48;;;;;;;0.00;0.00;;;25.40;98.50;;;;;;5098598;28;20043;-79
2022/08/23 09:26:26;;;;;;;0.20;0.20;;;25.50;98.90;;;;;;5116001;28;20131;-80
2022/08/23 09:28:55;;;;;;;0.00;0.00;;;25.60;98.50;;;;;;5115801;28;20139;-79
2022/08/23 09:31:42;;;;;;;0.03;0.03;;;25.80;98.50;;;;;;5098751;28;20395;-79
2022/08/23 09:34:37;;;;;;;0.00;0.00;;;25.80;97.20;;;;;;5116126;28;20097;-79
2022/08/23 09:37:12;;;;;;;;;;;26.00;96.70;;;;;;5098930;28;20521;-79
2022/08/23 09:39:41;;;;;;;0.00;0.00;;;26.10;97.00;;;;;;5115458;28;19920;-79
2022/08/23 09:42:29;;;;;;;0.00;0.00;;;26.10;96.00;;;;;;5098506;28;20055;-79
2022/08/23 09:44:56;;;;;;;0.00;0.00;;;26.10;96.50;;;;;;5115859;28;20495;-79
2022/08/23 09:47:34;;;;;;;0.00;0.00;;;26.20;96.00;;;;;;5098028;28;20063;-79
2022/08/23 09:50:25;;;;;;;0.00;0.00;;;26.20;95.10;;;;;;5098213;28;20086;-79
2022/08/23 09:53:25;;;;;;;0.00;0.00;;;26.40;96.60;;;;;;5098281;28;20086;-79
2022/08/23 09:55:55;;;;;;;0.00;0.00;;;26.50;95.50;;;;;;5020707;28;20052;-79
2022/08/23 09:58:37;;;;;;;0.10;0.10;;;26.70;95.40;;;;;;5020714;28;20052;-80
2022/08/23 10:01:12;;;;;;;0.00;0.00;;;26.80;95.20;;;;;;5020131;28;20053;-79
2022/08/23 10:03:39;;;;;;;1.17;0.43;;;26.90;95.90;;;;;;5020901;28;20060;-79
2022/08/23 10:06:07;;;;;;;0.10;0.10;;;27.00;95.50;;;;;;5019223;28;20056;-80
2022/08/23 10:08:51;;;;;;;0.00;0.00;;;27.10;94.80;;;;;;5037099;28;20088;-79
2022/08/23 10:11:29;;;;;;;0.00;0.00;;;27.10;96.20;;;;;;5036804;28;20057;-79
2022/08/23 10:13:55;;;;;;;0.00;0.00;;;27.40;95.50;;;;;;5020670;28;20057;-79
2022/08/23 10:16:39;;;;;;;0.00;0.00;;;27.60;95.10;;;;;;5019774;28;20532;-80
2022/08/23 10:19:19;;;;;;;0.00;0.00;;;27.60;93.30;;;;;;5036184;28;20092;-80
2022/08/23 10:21:59;;;;;;;0.00;0.00;;;27.70;93.40;;;;;;5036234;28;20452;-80
2022/08/23 10:24:30;;;;;;;0.00;0.00;;;27.80;92.70;;;;;;5036096;28;20548;-79
2022/08/23 10:30:14;;;;;;;0.00;0.00;;;28.10;92.90;;;;;;5036077;28;20045;-81
2022/08/23 10:33:06;;;;;;;0.00;0.00;;;28.30;93.80;;;;;;5071129;28;20099;-81
2022/08/23 10:35:51;;;;;;;0.47;0.22;;;28.50;91.60;;;;;;5097627;28;20394;-81
2022/08/23 10:38:43;;;;;;;0.10;0.10;;;28.70;92.20;;;;;;5114548;28;20501;-81
2022/08/23 10:41:29;;;;;;;0.10;0.10;;;28.90;91.00;;;;;;5114773;28;20420;-81
2022/08/23 10:44:20;;;;;;;0.08;0.00;;;28.90;88.30;;;;;;5097311;28;20042;-81
2022/08/23 10:47:04;;;;;;;0.00;0.00;;;28.80;86.40;;;;;;5096769;28;20145;-80
2022/08/23 10:49:34;;;;;;;0.00;0.00;;;28.70;88.10;;;;;;5114690;28;20425;-81
2022/08/23 10:52:04;;;;;;;0.00;0.00;;;28.80;83.40;;;;;;5097408;28;20047;-81
2022/08/23 10:54:45;;;;;;;0.75;0.38;;;28.70;84.60;;;;;;5097008;28;20097;-81
2022/08/23 10:57:15;;;;;;;0.00;0.00;;;28.70;84.40;;;;;;5113426;28;20047;-81
2022/08/23 10:59:45;;;;;;;0.00;0.00;;;28.80;82.90;;;;;;5097306;28;20502;-81
2022/08/23 11:02:50;;;;;;;0.10;0.10;;;28.80;83.70;;;;;;5113789;28;20063;-81
2022/08/23 11:05:18;;;;;;;;;;;28.80;82.90;;;;;;5035721;28;20056;-81
2022/08/23 11:08:14;;;;;;;0.10;0.10;;;29.00;85.90;;;;;;5019349;28;19920;-81
2022/08/23 11:10:46;;;;;;;0.90;0.55;;;29.10;84.20;;;;;;4976491;28;20058;-81
2022/08/23 11:13:12;;;;;;;0.03;0.00;;;29.30;84.50;;;;;;4960436;28;20495;-81
2022/08/23 11:15:55;;;;;;;0.00;0.00;;;29.40;75.30;;;;;;4976538;28;20149;-81
2022/08/23 11:18:32;;;;;;;0.00;0.00;;;29.60;77.10;;;;;;4976470;28;20054;-81
2022/08/23 11:21:00;;;;;;;0.00;0.00;;;29.80;79.60;;;;;;4977063;28;20050;-81
2022/08/23 11:23:45;;;;;;;0.00;0.00;;;29.90;77.10;;;;;;4976387;28;20113;-81
2022/08/23 11:26:26;;;;;;;0.00;0.00;;;29.90;77.90;;;;;;4960209;28;20053;-80
2022/08/23 11:29:06;;;;;;;0.00;0.00;;;29.90;75.90;;;;;;4954044;28;20422;-81
2022/08/23 11:31:56;;;;;;;0.00;0.00;;;30.10;76.10;;;;;;4969713;28;20062;-82
2022/08/23 11:34:27;;;;;;;0.10;0.00;;;30.10;71.00;;;;;;4953808;29;20142;-82
2022/08/23 11:37:17;;;;;;;0.00;0.00;;;30.20;73.30;;;;;;4954055;29;20158;-82
2022/08/23 11:39:57;;;;;;;0.00;0.00;;;30.20;73.70;;;;;;4970071;28;20051;-82
2022/08/23 11:42:46;;;;;;;0.00;0.00;;;30.10;74.00;;;;;;5003598;28;20509;-82
2022/08/23 11:45:41;;;;;;;0.00;0.00;;;30.00;71.80;;;;;;5030254;28;20144;-82
2022/08/23 11:48:12;;;;;;;1.00;0.00;;;29.90;72.30;;;;;;5063480;28;20052;-82
2022/08/23 11:50:50;;;;;;;0.10;0.10;;;29.90;70.90;;;;;;5093337;28;20040;-82
2022/08/23 11:53:40;;;;;;;0.20;0.20;;;29.90;69.50;;;;;;5092479;28;20561;-82
2022/08/23 11:56:30;;;;;;;2.67;0.25;;;29.90;72.00;;;;;;5076517;28;20095;-82
2022/08/23 11:59:01;;;;;;;0.00;0.00;;;30.00;73.10;;;;;;5092671;28;20484;-82
2022/08/23 12:01:38;;;;;;;0.00;0.00;;;30.20;71.40;;;;;;5092955;28;20569;-82
2022/08/23 12:04:13;;;;;;;0.00;0.00;;;30.30;71.40;;;;;;5075097;28;20048;-82
2022/08/23 12:06:39;;;;;;;0.00;0.00;;;30.40;68.90;;;;;;5092214;28;20052;-82
2022/08/23 12:09:11;;;;;;;0.00;0.00;;;30.40;68.40;;;;;;5092822;28;20142;-82
2022/08/23 12:11:55;;;;;;;0.00;0.00;;;30.50;68.20;;;;;;5093089;28;20408;-82
2022/08/23 12:14:32;;;;;;;0.00;0.00;;;30.60;69.40;;;;;;5075871;28;20087;-83
2022/08/23 12:17:27;;;;;;;0.00;0.00;;;30.80;69.10;;;;;;5092888;28;20128;-82
2022/08/23 12:20:04;;;;;;;0.00;0.00;;;30.80;65.60;;;;;;5092919;28;20102;-81
2022/08/23 12:22:51;;;;;;;0.00;0.00;;;30.70;65.60;;;;;;5075783;28;20090;-82
2022/08/23 12:25:19;;;;;;;0.00;0.00;;;30.80;66.20;;;;;;5075372;28;20051;-82
2022/08/23 12:27:49;;;;;;;0.57;0.20;;;30.70;64.30;;;;;;5092652;28;20055;-82
2022/08/23 12:30:51;;;;;;;0.13;0.13;;;30.70;65.40;;;;;;5077335;28;20503;-82
2022/08/23 12:33:55;;;;;;;0.00;0.00;;;30.80;63.20;;;;;;5079115;28;20488;-82
2022/08/23 12:36:26;;;;;;;0.05;0.05;;;31.00;64.70;;;;;;5079412;28;20459;-82
2022/08/23 12:39:19;;;;;;;0.20;0.20;;;31.10;63.10;;;;;;5096267;28;20044;-81
2022/08/23 12:42:03;;;;;;;0.00;0.00;;;31.20;63.10;;;;;;5078704;28;20571;-82
2022/08/23 12:44:29;;;;;;;0.00;0.00;;;31.10;62.70;;;;;;5079000;28;20036;-82
2022/08/23 12:46:56;;;;;;;0.00;0.00;;;31.00;61.10;;;;;;5079568;28;20055;-82
2022/08/23 12:49:34;;;;;;;0.00;0.00;;;31.00;62.50;;;;;;5094861;28;20468;-83
2022/08/23 12:52:07;;;;;;;0.00;0.00;;;30.90;65.90;;;;;;5078277;28;20070;-82
2022/08/23 12:54:42;;;;;;;0.00;0.00;;;31.00;65.20;;;;;;5079334;28;20127;-82
2022/08/23 12:57:17;;;;;;;0.00;0.00;;;31.00;63.60;;;;;;5078916;28;20105;-82
2022/08/23 12:59:49;;;;;;;0.00;0.00;;;31.00;66.40;;;;;;5096174;28;20093;-82
2022/08/23 13:02:23;;;;;;;0.00;0.00;;;30.90;64.10;;;;;;5096005;28;20054;-82
2022/08/23 13:04:51;;;;;;;0.10;0.10;;;30.70;63.00;;;;;;5079041;28;20068;-82
2022/08/23 13:07:21;;;;;;;0.00;0.00;;;30.60;65.30;;;;;;5078702;28;20377;-82
2022/08/23 13:09:48;;;;;;;0.00;0.00;;;30.50;63.10;;;;;;5078473;28;20048;-82
2022/08/23 13:12:16;;;;;;;0.00;0.00;;;30.40;62.00;;;;;;5096101;28;20044;-82
2022/08/23 13:14:49;;;;;;;0.00;0.00;;;30.30;63.20;;;;;;5095528;28;20472;-82
2022/08/23 13:17:24;;;;;;;0.00;0.00;;;30.30;64.00;;;;;;5078789;28;20048;-82
2022/08/23 13:20:02;;;;;;;0.00;0.00;;;30.20;67.60;;;;;;5095759;28;20399;-82